createdAt,value
2018-02-14T00:00:19.977Z,999.58
2018-02-14T00:01:00.523Z,999.59
2018-02-14T00:01:41.075Z,999.56
2018-02-14T00:02:21.617Z,999.58
2018-02-14T00:03:02.187Z,999.56
2018-02-14T00:03:42.757Z,999.53
2018-02-14T00:04:23.308Z,999.52
2018-02-14T00:05:03.894Z,999.53
2018-02-14T00:05:44.466Z,999.52
2018-02-14T00:06:25.042Z,999.53
2018-02-14T00:07:05.598Z,999.53
2018-02-14T00:07:46.192Z,999.52
2018-02-14T00:08:26.750Z,999.58
2018-02-14T00:09:07.308Z,999.59
2018-02-14T00:09:47.862Z,999.54
2018-02-14T00:10:28.435Z,999.58
2018-02-14T00:11:08.997Z,999.6
2018-02-14T00:11:49.571Z,999.58
2018-02-14T00:12:30.186Z,999.59
2018-02-14T00:13:10.753Z,999.62
2018-02-14T00:13:51.334Z,999.59
2018-02-14T00:14:31.894Z,999.64
2018-02-14T00:15:12.467Z,999.63
2018-02-14T00:15:53.023Z,999.66
2018-02-14T00:16:33.609Z,999.64
2018-02-14T00:17:14.177Z,999.62
2018-02-14T00:17:54.735Z,999.66
2018-02-14T00:18:35.291Z,999.64
2018-02-14T00:19:15.891Z,999.63
2018-02-14T00:19:56.448Z,999.61
2018-02-14T00:20:37.006Z,999.62
2018-02-14T00:21:17.578Z,999.65
2018-02-14T00:21:58.125Z,999.69
2018-02-14T00:22:38.679Z,999.7
2018-02-14T00:23:19.240Z,999.66
2018-02-14T00:23:59.829Z,999.73
2018-02-14T00:24:40.410Z,999.66
2018-02-14T00:25:20.955Z,999.69
2018-02-14T00:26:01.523Z,999.73
2018-02-14T00:26:42.066Z,999.75
2018-02-14T00:27:22.621Z,999.8
2018-02-14T00:28:03.194Z,999.78
2018-02-14T00:28:43.762Z,999.79
2018-02-14T00:29:24.309Z,999.75
2018-02-14T00:30:04.903Z,999.75
2018-02-14T00:30:45.462Z,999.76
2018-02-14T00:31:26.020Z,999.8
2018-02-14T00:32:06.625Z,999.72
2018-02-14T00:32:47.208Z,999.78
2018-02-14T00:33:27.778Z,999.74
2018-02-14T00:34:08.336Z,999.75
2018-02-14T00:34:48.910Z,999.79
2018-02-14T00:35:29.471Z,999.8
2018-02-14T00:36:10.034Z,999.8
2018-02-14T00:36:50.583Z,999.8
2018-02-14T00:37:31.162Z,999.77
2018-02-14T00:38:11.718Z,999.8
2018-02-14T00:38:52.289Z,999.8
2018-02-14T00:39:32.846Z,999.81
2018-02-14T00:40:13.398Z,999.8
2018-02-14T00:40:53.953Z,999.76
2018-02-14T00:41:34.517Z,999.85
2018-02-14T00:42:15.083Z,999.8
2018-02-14T00:42:55.654Z,999.87
2018-02-14T00:43:36.234Z,999.85
2018-02-14T00:44:16.775Z,999.87
2018-02-14T00:44:57.351Z,999.84
2018-02-14T00:45:37.903Z,999.84
2018-02-14T00:46:18.492Z,999.84
2018-02-14T00:46:59.066Z,999.91
2018-02-14T00:47:39.660Z,999.89
2018-02-14T00:48:20.161Z,999.95
2018-02-14T00:49:00.741Z,999.93
2018-02-14T00:49:41.289Z,999.91
2018-02-14T00:50:21.865Z,999.89
2018-02-14T00:51:02.427Z,999.93
2018-02-14T00:51:43.022Z,999.95
2018-02-14T00:52:23.655Z,999.9
2018-02-14T00:53:04.240Z,999.91
2018-02-14T00:53:44.801Z,999.95
2018-02-14T00:54:25.354Z,999.9
2018-02-14T00:55:05.900Z,999.9
2018-02-14T00:55:46.462Z,999.92
2018-02-14T00:56:27.016Z,999.89
2018-02-14T00:57:07.686Z,999.87
2018-02-14T00:57:48.270Z,999.86
2018-02-14T00:58:28.801Z,999.87
2018-02-14T00:59:09.355Z,999.83
2018-02-14T00:59:49.918Z,999.85
2018-02-14T01:00:30.492Z,999.85
2018-02-14T01:01:11.054Z,999.9
2018-02-14T01:01:51.618Z,999.86
2018-02-14T01:02:32.173Z,999.86
2018-02-14T01:03:12.755Z,999.85
2018-02-14T01:03:53.302Z,999.88
2018-02-14T01:04:33.891Z,999.88
2018-02-14T01:05:14.450Z,999.87
2018-02-14T01:05:55.025Z,999.86
2018-02-14T01:06:35.587Z,999.9
2018-02-14T01:07:16.150Z,999.88
2018-02-14T01:07:56.710Z,999.86
2018-02-14T01:08:37.272Z,999.88
2018-02-14T01:09:17.833Z,999.88
2018-02-14T01:09:58.381Z,999.84
2018-02-14T01:10:38.954Z,999.86
2018-02-14T01:11:19.509Z,999.91
2018-02-14T01:12:00.069Z,999.92
2018-02-14T01:12:40.638Z,999.86
2018-02-14T01:13:21.204Z,999.91
2018-02-14T01:14:01.755Z,999.88
2018-02-14T01:14:42.306Z,999.89
2018-02-14T01:15:22.875Z,999.87
2018-02-14T01:16:03.432Z,999.86
2018-02-14T01:16:47.410Z,999.86
2018-02-14T01:17:28.065Z,999.83
2018-02-14T01:18:08.625Z,999.84
2018-02-14T01:18:49.182Z,999.87
2018-02-14T01:19:29.763Z,999.9
2018-02-14T01:20:10.324Z,999.88
2018-02-14T01:20:50.893Z,999.85
2018-02-14T01:21:31.449Z,999.86
2018-02-14T01:22:12.001Z,999.86
2018-02-14T01:22:52.566Z,999.91
2018-02-14T01:23:33.124Z,999.98
2018-02-14T01:24:13.682Z,999.93
2018-02-14T01:24:54.257Z,999.95
2018-02-14T01:25:34.800Z,999.93
2018-02-14T01:26:15.353Z,999.93
2018-02-14T01:26:55.909Z,1000
2018-02-14T01:27:36.470Z,1000
2018-02-14T01:28:17.052Z,1000.03
2018-02-14T01:28:57.650Z,1000.05
2018-02-14T01:29:38.206Z,1000.06
2018-02-14T01:30:18.747Z,1000.05
2018-02-14T01:30:59.309Z,1000.06
2018-02-14T01:31:39.883Z,1000.05
2018-02-14T01:32:20.460Z,1000.04
2018-02-14T01:33:01.016Z,1000.06
2018-02-14T01:33:41.596Z,1000.05
2018-02-14T01:34:22.150Z,1000.11
2018-02-14T01:35:02.710Z,1000.07
2018-02-14T01:35:43.262Z,1000.1
2018-02-14T01:36:23.832Z,1000.1
2018-02-14T01:37:04.381Z,1000.11
2018-02-14T01:37:44.945Z,1000.11
2018-02-14T01:38:25.522Z,1000.05
2018-02-14T01:39:06.097Z,1000.1
2018-02-14T01:39:46.652Z,1000.07
2018-02-14T01:40:27.207Z,1000.09
2018-02-14T01:41:07.785Z,1000.05
2018-02-14T01:41:48.341Z,1000.1
2018-02-14T01:42:28.892Z,1000.05
2018-02-14T01:43:09.460Z,1000.1
2018-02-14T01:43:50.014Z,1000.08
2018-02-14T01:44:30.579Z,1000.1
2018-02-14T01:45:11.162Z,1000.09
2018-02-14T01:45:51.712Z,1000.12
2018-02-14T01:46:32.288Z,1000.12
2018-02-14T01:47:12.883Z,1000.07
2018-02-14T01:47:53.450Z,1000.08
2018-02-14T01:48:33.987Z,1000.1
2018-02-14T01:49:14.539Z,1000.1
2018-02-14T01:49:55.095Z,1000.05
2018-02-14T01:50:35.648Z,1000.06
2018-02-14T01:51:16.210Z,1000.04
2018-02-14T01:51:56.773Z,1000.05
2018-02-14T01:52:37.336Z,1000.05
2018-02-14T01:53:17.908Z,1000.06
2018-02-14T01:53:58.456Z,1000.07
2018-02-14T01:54:39.023Z,1000.08
2018-02-14T01:55:19.587Z,1000.08
2018-02-14T01:56:00.143Z,1000.09
2018-02-14T01:56:40.677Z,1000.1
2018-02-14T01:57:21.243Z,1000.09
2018-02-14T01:58:01.801Z,1000.09
2018-02-14T01:58:42.373Z,1000.14
2018-02-14T01:59:22.934Z,1000.14
2018-02-14T02:00:03.512Z,1000.14
2018-02-14T02:00:44.064Z,1000.14
2018-02-14T02:01:24.616Z,1000.1
2018-02-14T02:02:05.171Z,1000.1
2018-02-14T02:02:45.727Z,1000.12
2018-02-14T02:03:26.280Z,1000.12
2018-02-14T02:04:06.858Z,1000.08
2018-02-14T02:04:47.410Z,1000.1
2018-02-14T02:05:27.974Z,1000.14
2018-02-14T02:06:08.520Z,1000.11
2018-02-14T02:06:49.079Z,1000.11
2018-02-14T02:07:29.644Z,1000.13
2018-02-14T02:08:10.206Z,1000.14
2018-02-14T02:08:50.789Z,1000.12
2018-02-14T02:09:31.340Z,1000.08
2018-02-14T02:10:11.895Z,1000.18
2018-02-14T02:10:52.449Z,1000.15
2018-02-14T02:11:32.999Z,1000.22
2018-02-14T02:12:13.567Z,1000.17
2018-02-14T02:12:54.129Z,1000.13
2018-02-14T02:13:34.692Z,1000.15
2018-02-14T02:14:15.257Z,1000.17
2018-02-14T02:14:55.815Z,1000.19
2018-02-14T02:15:36.376Z,1000.23
2018-02-14T02:16:16.934Z,1000.21
2018-02-14T02:16:57.513Z,1000.18
2018-02-14T02:17:38.084Z,1000.17
2018-02-14T02:18:18.661Z,1000.19
2018-02-14T02:18:59.220Z,1000.16
2018-02-14T02:19:39.779Z,1000.17
2018-02-14T02:20:20.339Z,1000.18
2018-02-14T02:21:00.890Z,1000.21
2018-02-14T02:21:41.454Z,1000.17
2018-02-14T02:22:22.057Z,1000.21
2018-02-14T02:23:02.590Z,1000.2
2018-02-14T02:23:43.138Z,1000.16
2018-02-14T02:24:23.702Z,1000.17
2018-02-14T02:25:04.263Z,1000.18
2018-02-14T02:25:44.820Z,1000.17
2018-02-14T02:26:25.380Z,1000.24
2018-02-14T02:27:05.926Z,1000.22
2018-02-14T02:27:46.490Z,1000.22
2018-02-14T02:28:27.041Z,1000.25
2018-02-14T02:29:07.606Z,1000.27
2018-02-14T02:29:48.159Z,1000.33
2018-02-14T02:30:28.716Z,1000.31
2018-02-14T02:31:09.268Z,1000.29
2018-02-14T02:31:49.816Z,1000.32
2018-02-14T02:32:30.374Z,1000.26
2018-02-14T02:33:10.930Z,1000.32
2018-02-14T02:33:51.493Z,1000.34
2018-02-14T02:34:32.064Z,1000.3
2018-02-14T02:35:12.631Z,1000.33
2018-02-14T02:35:53.198Z,1000.39
2018-02-14T02:36:33.760Z,1000.36
2018-02-14T02:37:14.325Z,1000.42
2018-02-14T02:37:54.887Z,1000.36
2018-02-14T02:38:35.444Z,1000.36
2018-02-14T02:39:15.990Z,1000.4
2018-02-14T02:39:56.555Z,1000.36
2018-02-14T02:40:37.100Z,1000.34
2018-02-14T02:41:17.662Z,1000.4
2018-02-14T02:41:58.215Z,1000.38
2018-02-14T02:42:38.781Z,1000.36
2018-02-14T02:43:19.336Z,1000.37
2018-02-14T02:43:59.896Z,1000.35
2018-02-14T02:44:40.462Z,1000.32
2018-02-14T02:45:21.020Z,1000.37
2018-02-14T02:46:01.582Z,1000.34
2018-02-14T02:46:42.138Z,1000.31
2018-02-14T02:47:22.706Z,1000.3
2018-02-14T02:48:03.267Z,1000.31
2018-02-14T02:48:43.832Z,1000.32
2018-02-14T02:49:24.375Z,1000.37
2018-02-14T02:50:04.947Z,1000.26
2018-02-14T02:50:45.506Z,1000.25
2018-02-14T02:51:26.069Z,1000.31
2018-02-14T02:52:06.628Z,1000.23
2018-02-14T02:52:47.183Z,1000.29
2018-02-14T02:53:27.725Z,1000.24
2018-02-14T02:54:08.286Z,1000.28
2018-02-14T02:54:48.835Z,1000.29
2018-02-14T02:55:29.398Z,1000.28
2018-02-14T02:56:09.968Z,1000.34
2018-02-14T02:56:50.524Z,1000.25
2018-02-14T02:57:31.075Z,1000.31
2018-02-14T02:58:11.663Z,1000.26
2018-02-14T02:58:52.233Z,1000.32
2018-02-14T02:59:32.784Z,1000.34
2018-02-14T03:00:13.357Z,1000.38
2018-02-14T03:00:53.921Z,1000.35
2018-02-14T03:01:34.482Z,1000.36
2018-02-14T03:02:15.036Z,1000.37
2018-02-14T03:02:55.599Z,1000.35
2018-02-14T03:03:36.157Z,1000.38
2018-02-14T03:04:16.729Z,1000.35
2018-02-14T03:04:57.298Z,1000.37
2018-02-14T03:05:37.849Z,1000.32
2018-02-14T03:06:18.392Z,1000.35
2018-02-14T03:06:58.967Z,1000.34
2018-02-14T03:07:39.554Z,1000.32
2018-02-14T03:08:20.116Z,1000.33
2018-02-14T03:09:00.683Z,1000.38
2018-02-14T03:09:41.249Z,1000.35
2018-02-14T03:10:21.802Z,1000.34
2018-02-14T03:11:02.358Z,1000.33
2018-02-14T03:11:42.920Z,1000.37
2018-02-14T03:12:23.484Z,1000.37
2018-02-14T03:13:04.038Z,1000.37
2018-02-14T03:13:44.605Z,1000.37
2018-02-14T03:14:25.179Z,1000.39
2018-02-14T03:15:05.742Z,1000.42
2018-02-14T03:15:46.289Z,1000.41
2018-02-14T03:16:26.853Z,1000.43
2018-02-14T03:17:07.418Z,1000.41
2018-02-14T03:17:47.974Z,1000.43
2018-02-14T03:18:28.536Z,1000.42
2018-02-14T03:19:09.093Z,1000.41
2018-02-14T03:19:49.657Z,1000.45
2018-02-14T03:20:30.239Z,1000.44
2018-02-14T03:21:10.800Z,1000.49
2018-02-14T03:21:51.363Z,1000.53
2018-02-14T03:22:31.918Z,1000.46
2018-02-14T03:23:12.473Z,1000.51
2018-02-14T03:23:53.034Z,1000.53
2018-02-14T03:24:33.608Z,1000.52
2018-02-14T03:25:14.167Z,1000.53
2018-02-14T03:25:54.721Z,1000.56
2018-02-14T03:26:35.285Z,1000.61
2018-02-14T03:27:15.865Z,1000.61
2018-02-14T03:27:56.424Z,1000.59
2018-02-14T03:28:36.981Z,1000.63
2018-02-14T03:29:17.556Z,1000.62
2018-02-14T03:29:58.114Z,1000.62
2018-02-14T03:30:38.671Z,1000.64
2018-02-14T03:31:19.225Z,1000.58
2018-02-14T03:31:59.780Z,1000.58
2018-02-14T03:32:40.341Z,1000.62
2018-02-14T03:33:20.902Z,1000.66
2018-02-14T03:34:01.471Z,1000.69
2018-02-14T03:34:42.028Z,1000.62
2018-02-14T03:35:22.588Z,1000.66
2018-02-14T03:36:03.152Z,1000.66
2018-02-14T03:36:43.701Z,1000.65
2018-02-14T03:37:24.254Z,1000.63
2018-02-14T03:38:04.821Z,1000.64
2018-02-14T03:38:45.381Z,1000.7
2018-02-14T03:39:25.953Z,1000.68
2018-02-14T03:40:06.512Z,1000.68
2018-02-14T03:40:47.077Z,1000.68
2018-02-14T03:41:27.631Z,1000.72
2018-02-14T03:42:08.183Z,1000.71
2018-02-14T03:42:48.740Z,1000.72
2018-02-14T03:43:29.962Z,1000.72
2018-02-14T03:44:09.853Z,1000.72
2018-02-14T03:44:50.420Z,1000.72
2018-02-14T03:45:31.001Z,1000.74
2018-02-14T03:46:11.574Z,1000.77
2018-02-14T03:46:52.140Z,1000.74
2018-02-14T03:47:32.710Z,1000.77
2018-02-14T03:48:13.271Z,1000.8
2018-02-14T03:48:53.830Z,1000.78
2018-02-14T03:49:34.394Z,1000.79
2018-02-14T03:50:14.963Z,1000.8
2018-02-14T03:50:55.517Z,1000.8
2018-02-14T03:51:36.069Z,1000.8
2018-02-14T03:52:16.619Z,1000.76
2018-02-14T03:52:57.174Z,1000.8
2018-02-14T03:53:37.733Z,1000.8
2018-02-14T03:54:18.300Z,1000.79
2018-02-14T03:54:58.855Z,1000.81
2018-02-14T03:55:39.418Z,1000.81
2018-02-14T03:56:19.987Z,1000.8
2018-02-14T03:57:00.548Z,1000.75
2018-02-14T03:57:41.110Z,1000.8
2018-02-14T03:58:21.664Z,1000.8
2018-02-14T03:59:02.232Z,1000.83
2018-02-14T03:59:42.795Z,1000.82
2018-02-14T04:00:23.357Z,1000.87
2018-02-14T04:01:03.917Z,1000.84
2018-02-14T04:01:44.471Z,1000.89
2018-02-14T04:02:25.045Z,1000.89
2018-02-14T04:03:05.594Z,1000.85
2018-02-14T04:03:46.155Z,1000.9
2018-02-14T04:04:26.724Z,1000.94
2018-02-14T04:05:07.284Z,1000.95
2018-02-14T04:05:47.851Z,1000.98
2018-02-14T04:06:28.409Z,1001.01
2018-02-14T04:07:08.966Z,1000.99
2018-02-14T04:07:49.532Z,1000.98
2018-02-14T04:08:30.083Z,1000.99
2018-02-14T04:09:10.646Z,1000.99
2018-02-14T04:09:51.207Z,1001.02
2018-02-14T04:10:31.759Z,1000.98
2018-02-14T04:11:12.340Z,1001.02
2018-02-14T04:11:54.244Z,1000.99
2018-02-14T04:12:34.813Z,1001.01
2018-02-14T04:13:15.367Z,1001
2018-02-14T04:13:55.930Z,1000.97
2018-02-14T04:14:36.494Z,1001.05
2018-02-14T04:15:17.046Z,1001.11
2018-02-14T04:15:57.610Z,1001.04
2018-02-14T04:16:38.171Z,1001
2018-02-14T04:17:18.742Z,1001.05
2018-02-14T04:17:59.302Z,1001.11
2018-02-14T04:18:39.872Z,1001.1
2018-02-14T04:19:20.429Z,1001.09
2018-02-14T04:20:00.986Z,1001.15
2018-02-14T04:20:41.540Z,1001.13
2018-02-14T04:21:22.111Z,1001.17
2018-02-14T04:22:02.704Z,1001.15
2018-02-14T04:22:43.268Z,1001.18
2018-02-14T04:23:23.824Z,1001.19
2018-02-14T04:24:04.377Z,1001.2
2018-02-14T04:24:44.917Z,1001.25
2018-02-14T04:25:25.487Z,1001.25
2018-02-14T04:26:06.045Z,1001.28
2018-02-14T04:26:46.603Z,1001.26
2018-02-14T04:27:27.182Z,1001.28
2018-02-14T04:28:07.726Z,1001.3
2018-02-14T04:28:48.256Z,1001.3
2018-02-14T04:29:28.813Z,1001.32
2018-02-14T04:30:09.368Z,1001.31
2018-02-14T04:30:49.919Z,1001.35
2018-02-14T04:31:30.474Z,1001.33
2018-02-14T04:32:11.044Z,1001.32
2018-02-14T04:32:51.604Z,1001.33
2018-02-14T04:33:32.164Z,1001.34
2018-02-14T04:34:12.711Z,1001.32
2018-02-14T04:34:53.270Z,1001.36
2018-02-14T04:35:33.859Z,1001.35
2018-02-14T04:36:14.397Z,1001.4
2018-02-14T04:36:54.985Z,1001.38
2018-02-14T04:37:35.541Z,1001.46
2018-02-14T04:38:16.082Z,1001.46
2018-02-14T04:38:56.660Z,1001.43
2018-02-14T04:39:37.229Z,1001.46
2018-02-14T04:40:17.781Z,1001.47
2018-02-14T04:40:58.348Z,1001.45
2018-02-14T04:41:38.930Z,1001.45
2018-02-14T04:42:19.484Z,1001.46
2018-02-14T04:43:00.050Z,1001.48
2018-02-14T04:43:40.610Z,1001.47
2018-02-14T04:44:21.165Z,1001.44
2018-02-14T04:45:01.728Z,1001.49
2018-02-14T04:45:42.298Z,1001.47
2018-02-14T04:46:22.845Z,1001.49
2018-02-14T04:47:03.406Z,1001.5
2018-02-14T04:47:43.987Z,1001.5
2018-02-14T04:48:24.540Z,1001.54
2018-02-14T04:49:05.103Z,1001.51
2018-02-14T04:49:45.680Z,1001.53
2018-02-14T04:50:26.236Z,1001.55
2018-02-14T04:51:06.802Z,1001.56
2018-02-14T04:51:47.363Z,1001.57
2018-02-14T04:52:27.922Z,1001.55
2018-02-14T04:53:08.478Z,1001.59
2018-02-14T04:53:49.045Z,1001.62
2018-02-14T04:54:29.586Z,1001.62
2018-02-14T04:55:10.150Z,1001.59
2018-02-14T04:55:50.709Z,1001.56
2018-02-14T04:56:31.264Z,1001.6
2018-02-14T04:57:12.785Z,1001.57
2018-02-14T04:57:53.340Z,1001.58
2018-02-14T04:58:33.906Z,1001.66
2018-02-14T04:59:14.447Z,1001.63
2018-02-14T04:59:55.005Z,1001.66
2018-02-14T05:00:35.564Z,1001.7
2018-02-14T05:01:16.097Z,1001.69
2018-02-14T05:01:56.661Z,1001.72
2018-02-14T05:02:37.226Z,1001.76
2018-02-14T05:03:17.796Z,1001.74
2018-02-14T05:03:58.354Z,1001.76
2018-02-14T05:04:38.912Z,1001.76
2018-02-14T05:05:19.464Z,1001.73
2018-02-14T05:06:00.018Z,1001.73
2018-02-14T05:06:40.572Z,1001.73
2018-02-14T05:07:21.125Z,1001.74
2018-02-14T05:08:01.685Z,1001.77
2018-02-14T05:08:42.230Z,1001.79
2018-02-14T05:09:22.785Z,1001.75
2018-02-14T05:10:03.343Z,1001.77
2018-02-14T05:10:43.908Z,1001.77
2018-02-14T05:11:24.479Z,1001.82
2018-02-14T05:12:05.034Z,1001.82
2018-02-14T05:12:45.589Z,1001.76
2018-02-14T05:13:26.155Z,1001.86
2018-02-14T05:14:06.713Z,1001.87
2018-02-14T05:14:47.271Z,1001.86
2018-02-14T05:15:27.840Z,1001.87
2018-02-14T05:16:08.389Z,1001.93
2018-02-14T05:16:48.945Z,1001.89
2018-02-14T05:17:29.500Z,1001.95
2018-02-14T05:18:10.069Z,1001.92
2018-02-14T05:18:50.637Z,1001.95
2018-02-14T05:19:31.191Z,1001.94
2018-02-14T05:20:11.773Z,1001.96
2018-02-14T05:20:52.284Z,1001.94
2018-02-14T05:21:32.847Z,1002.01
2018-02-14T05:22:13.408Z,1001.96
2018-02-14T05:22:53.964Z,1001.96
2018-02-14T05:23:34.519Z,1001.98
2018-02-14T05:24:15.072Z,1002.04
2018-02-14T05:24:55.664Z,1001.97
2018-02-14T05:25:36.215Z,1001.99
2018-02-14T05:26:16.772Z,1001.97
2018-02-14T05:26:57.330Z,1001.99
2018-02-14T05:27:37.903Z,1001.98
2018-02-14T05:28:18.475Z,1001.97
2018-02-14T05:28:59.025Z,1001.97
2018-02-14T05:29:39.621Z,1002.06
2018-02-14T05:30:20.190Z,1002.03
2018-02-14T05:31:00.747Z,1002.01
2018-02-14T05:31:41.355Z,1002.02
2018-02-14T05:32:21.915Z,1001.99
2018-02-14T05:33:02.462Z,1002.02
2018-02-14T05:33:43.028Z,1002.01
2018-02-14T05:34:23.587Z,1002.08
2018-02-14T05:35:04.137Z,1002.09
2018-02-14T05:35:44.704Z,1002.07
2018-02-14T05:36:25.271Z,1002.07
2018-02-14T05:37:05.834Z,1002.11
2018-02-14T05:37:46.984Z,1002.1
2018-02-14T05:38:27.583Z,1002.17
2018-02-14T05:39:08.146Z,1002.18
2018-02-14T05:39:48.685Z,1002.16
2018-02-14T05:40:29.253Z,1002.18
2018-02-14T05:41:09.816Z,1002.17
2018-02-14T05:41:50.374Z,1002.17
2018-02-14T05:42:30.927Z,1002.18
2018-02-14T05:43:11.482Z,1002.14
2018-02-14T05:43:52.021Z,1002.18
2018-02-14T05:44:32.573Z,1002.21
2018-02-14T05:45:13.142Z,1002.2
2018-02-14T05:45:53.704Z,1002.19
2018-02-14T05:46:34.259Z,1002.19
2018-02-14T05:47:14.814Z,1002.21
2018-02-14T05:47:55.378Z,1002.26
2018-02-14T05:48:35.943Z,1002.24
2018-02-14T05:49:16.514Z,1002.33
2018-02-14T05:49:57.073Z,1002.28
2018-02-14T05:50:37.634Z,1002.36
2018-02-14T05:51:18.195Z,1002.34
2018-02-14T05:51:58.735Z,1002.38
2018-02-14T05:52:39.285Z,1002.37
2018-02-14T05:53:19.837Z,1002.39
2018-02-14T05:54:00.409Z,1002.37
2018-02-14T05:54:40.980Z,1002.39
2018-02-14T05:55:21.530Z,1002.36
2018-02-14T05:56:02.089Z,1002.4
2018-02-14T05:56:42.659Z,1002.41
2018-02-14T05:57:23.212Z,1002.43
2018-02-14T05:58:03.768Z,1002.42
2018-02-14T05:58:44.320Z,1002.44
2018-02-14T05:59:24.888Z,1002.42
2018-02-14T06:00:05.446Z,1002.44
2018-02-14T06:00:46.022Z,1002.47
2018-02-14T06:01:26.586Z,1002.47
2018-02-14T06:02:07.166Z,1002.46
2018-02-14T06:02:47.690Z,1002.43
2018-02-14T06:03:28.241Z,1002.47
2018-02-14T06:04:08.795Z,1002.51
2018-02-14T06:04:49.438Z,1002.47
2018-02-14T06:05:29.988Z,1002.49
2018-02-14T06:06:10.565Z,1002.53
2018-02-14T06:06:51.155Z,1002.52
2018-02-14T06:07:31.692Z,1002.55
2018-02-14T06:08:12.256Z,1002.53
2018-02-14T06:08:52.806Z,1002.55
2018-02-14T06:09:33.376Z,1002.61
2018-02-14T06:10:13.934Z,1002.59
2018-02-14T06:10:54.496Z,1002.58
2018-02-14T06:11:35.070Z,1002.63
2018-02-14T06:12:15.627Z,1002.64
2018-02-14T06:12:56.181Z,1002.61
2018-02-14T06:13:36.730Z,1002.64
2018-02-14T06:14:17.303Z,1002.68
2018-02-14T06:14:57.861Z,1002.65
2018-02-14T06:15:38.419Z,1002.68
2018-02-14T06:16:18.978Z,1002.71
2018-02-14T06:16:59.544Z,1002.71
2018-02-14T06:17:40.104Z,1002.72
2018-02-14T06:18:20.671Z,1002.76
2018-02-14T06:19:01.228Z,1002.79
2018-02-14T06:19:41.770Z,1002.77
2018-02-14T06:20:22.330Z,1002.78
2018-02-14T06:21:02.886Z,1002.84
2018-02-14T06:21:43.491Z,1002.82
2018-02-14T06:22:24.053Z,1002.81
2018-02-14T06:23:04.609Z,1002.81
2018-02-14T06:23:45.176Z,1002.81
2018-02-14T06:24:25.733Z,1002.85
2018-02-14T06:25:06.315Z,1002.86
2018-02-14T06:25:46.873Z,1002.86
2018-02-14T06:26:27.435Z,1002.9
2018-02-14T06:27:08.004Z,1002.88
2018-02-14T06:27:48.573Z,1002.9
2018-02-14T06:28:29.166Z,1002.99
2018-02-14T06:29:09.695Z,1002.96
2018-02-14T06:29:50.245Z,1002.99
2018-02-14T06:30:30.812Z,1003.04
2018-02-14T06:31:11.350Z,1003.06
2018-02-14T06:31:51.911Z,1003.09
2018-02-14T06:32:32.465Z,1003.06
2018-02-14T06:33:13.041Z,1003.1
2018-02-14T06:33:53.616Z,1003.1
2018-02-14T06:34:34.189Z,1003.15
2018-02-14T06:35:14.736Z,1003.15
2018-02-14T06:35:55.316Z,1003.14
2018-02-14T06:36:35.876Z,1003.14
2018-02-14T06:37:16.435Z,1003.14
2018-02-14T06:37:57.012Z,1003.18
2018-02-14T06:38:37.572Z,1003.19
2018-02-14T06:39:19.010Z,1003.14
2018-02-14T06:39:59.454Z,1003.21
2018-02-14T06:40:40.041Z,1003.19
2018-02-14T06:41:20.561Z,1003.26
2018-02-14T06:42:01.106Z,1003.23
2018-02-14T06:42:41.670Z,1003.23
2018-02-14T06:43:22.227Z,1003.28
2018-02-14T06:44:02.784Z,1003.3
2018-02-14T06:44:43.354Z,1003.28
2018-02-14T06:45:23.954Z,1003.3
2018-02-14T06:46:04.492Z,1003.33
2018-02-14T06:46:45.059Z,1003.34
2018-02-14T06:47:25.616Z,1003.36
2018-02-14T06:48:06.173Z,1003.36
2018-02-14T06:48:46.737Z,1003.36
2018-02-14T06:49:27.325Z,1003.36
2018-02-14T06:50:07.893Z,1003.36
2018-02-14T06:50:48.439Z,1003.35
2018-02-14T06:51:28.990Z,1003.38
2018-02-14T06:52:09.568Z,1003.37
2018-02-14T06:52:50.133Z,1003.37
2018-02-14T06:53:30.704Z,1003.41
2018-02-14T06:54:11.216Z,1003.4
2018-02-14T06:54:51.768Z,1003.43
2018-02-14T06:55:32.309Z,1003.43
2018-02-14T06:56:12.874Z,1003.48
2018-02-14T06:56:53.428Z,1003.5
2018-02-14T06:57:33.990Z,1003.43
2018-02-14T06:58:14.566Z,1003.43
2018-02-14T06:58:55.141Z,1003.47
2018-02-14T06:59:35.694Z,1003.47
2018-02-14T07:00:16.262Z,1003.49
2018-02-14T07:00:56.803Z,1003.46
2018-02-14T07:01:37.365Z,1003.47
2018-02-14T07:02:17.928Z,1003.49
2018-02-14T07:02:58.480Z,1003.43
2018-02-14T07:03:39.040Z,1003.44
2018-02-14T07:04:19.632Z,1003.46
2018-02-14T07:05:00.214Z,1003.49
2018-02-14T07:05:40.743Z,1003.44
2018-02-14T07:06:21.336Z,1003.45
2018-02-14T07:07:01.878Z,1003.46
2018-02-14T07:07:42.432Z,1003.47
2018-02-14T07:08:22.978Z,1003.46
2018-02-14T07:09:03.541Z,1003.48
2018-02-14T07:09:44.099Z,1003.48
2018-02-14T07:10:24.919Z,1003.46
2018-02-14T07:11:05.367Z,1003.49
2018-02-14T07:11:45.938Z,1003.47
2018-02-14T07:12:26.555Z,1003.5
2018-02-14T07:13:07.102Z,1003.51
2018-02-14T07:13:47.718Z,1003.51
2018-02-14T07:14:28.257Z,1003.53
2018-02-14T07:15:08.821Z,1003.55
2018-02-14T07:15:49.943Z,1003.53
2018-02-14T07:16:30.526Z,1003.5
2018-02-14T07:17:11.077Z,1003.52
2018-02-14T07:17:51.653Z,1003.56
2018-02-14T07:18:32.222Z,1003.52
2018-02-14T07:19:12.784Z,1003.54
2018-02-14T07:19:53.348Z,1003.54
2018-02-14T07:20:33.898Z,1003.56
2018-02-14T07:21:14.481Z,1003.57
2018-02-14T07:21:55.276Z,1003.57
2018-02-14T07:22:36.164Z,1003.52
2018-02-14T07:23:16.744Z,1003.58
2018-02-14T07:23:57.357Z,1003.58
2018-02-14T07:24:37.908Z,1003.58
2018-02-14T07:25:18.478Z,1003.55
2018-02-14T07:25:59.027Z,1003.59
2018-02-14T07:26:39.591Z,1003.58
2018-02-14T07:27:20.153Z,1003.53
2018-02-14T07:28:00.752Z,1003.57
2018-02-14T07:28:41.329Z,1003.57
2018-02-14T07:29:21.884Z,1003.62
2018-02-14T07:30:02.467Z,1003.59
2018-02-14T07:30:43.026Z,1003.63
2018-02-14T07:31:23.597Z,1003.59
2018-02-14T07:32:04.154Z,1003.6
2018-02-14T07:32:44.717Z,1003.55
2018-02-14T07:33:25.280Z,1003.6
2018-02-14T07:34:05.861Z,1003.6
2018-02-14T07:34:46.420Z,1003.62
2018-02-14T07:35:26.999Z,1003.59
2018-02-14T07:36:07.570Z,1003.63
2018-02-14T07:36:48.115Z,1003.59
2018-02-14T07:37:28.673Z,1003.65
2018-02-14T07:38:09.240Z,1003.66
2018-02-14T07:38:49.782Z,1003.63
2018-02-14T07:39:30.335Z,1003.67
2018-02-14T07:40:10.897Z,1003.69
2018-02-14T07:40:51.463Z,1003.67
2018-02-14T07:41:32.008Z,1003.71
2018-02-14T07:42:12.565Z,1003.7
2018-02-14T07:42:53.143Z,1003.76
2018-02-14T07:43:33.703Z,1003.78
2018-02-14T07:44:14.277Z,1003.8
2018-02-14T07:44:54.834Z,1003.81
2018-02-14T07:45:35.411Z,1003.84
2018-02-14T07:46:15.980Z,1003.85
2018-02-14T07:46:56.527Z,1003.87
2018-02-14T07:47:37.095Z,1003.86
2018-02-14T07:48:17.649Z,1003.85
2018-02-14T07:48:58.252Z,1003.87
2018-02-14T07:49:38.832Z,1003.87
2018-02-14T07:50:19.399Z,1003.91
2018-02-14T07:50:59.964Z,1003.9
2018-02-14T07:51:40.494Z,1003.91
2018-02-14T07:52:21.051Z,1003.9
2018-02-14T07:53:01.615Z,1003.87
2018-02-14T07:53:42.172Z,1003.87
2018-02-14T07:54:22.751Z,1003.84
2018-02-14T07:55:03.275Z,1003.89
2018-02-14T07:55:43.825Z,1003.84
2018-02-14T07:56:24.385Z,1003.85
2018-02-14T07:57:05.052Z,1003.84
2018-02-14T07:57:45.654Z,1003.83
2018-02-14T07:58:26.223Z,1003.83
2018-02-14T07:59:06.776Z,1003.86
2018-02-14T07:59:47.330Z,1003.76
2018-02-14T08:00:27.887Z,1003.78
2018-02-14T08:01:08.457Z,1003.8
2018-02-14T08:01:48.985Z,1003.79
2018-02-14T08:02:29.560Z,1003.82
2018-02-14T08:03:10.113Z,1003.87
2018-02-14T08:03:50.668Z,1003.91
2018-02-14T08:04:31.270Z,1003.85
2018-02-14T08:05:11.832Z,1003.83
2018-02-14T08:05:52.398Z,1003.86
2018-02-14T08:06:32.951Z,1003.88
2018-02-14T08:07:13.512Z,1003.85
2018-02-14T08:07:54.122Z,1003.89
2018-02-14T08:08:35.162Z,1003.83
2018-02-14T08:09:15.690Z,1003.9
2018-02-14T08:09:56.257Z,1003.95
2018-02-14T08:10:36.817Z,1003.94
2018-02-14T08:11:17.381Z,1003.94
2018-02-14T08:11:57.921Z,1003.96
2018-02-14T08:12:38.472Z,1003.99
2018-02-14T08:13:19.027Z,1003.98
2018-02-14T08:13:59.596Z,1003.96
2018-02-14T08:14:40.154Z,1003.99
2018-02-14T08:15:20.675Z,1003.97